GMMNGMME

Guest
Details From GMMN - Casablanca Mohammed V Intl
To GMME - SALE
Flight Number -
Tags generated
Created
Modified
Stats Distance 59 nm / 109 km
Max Altitude 0 ft / 0 m
Waypoints 3
Social Downloads 3
Likes 0
Share VATSIM

Download

Looking for another format? Having issues loading an existing format? Contact us
Advertisement - Login to hide

Notes

Basic altitude profile: - Ascent Rate: 2500ft/min - Ascent Speed: 145kts - Cruise Altitude: 35000ft - Cruise Speed: 420kts - Descent Rate: 15000ft/min - Descent Speed: 320kts Options: - Use NATs: yes - Use PACOTS: yes - Use low airways: yes - Use high airways: yes

Route

GMMN RBT GMME

ID Type Via Altitude Latitude Longitude Leg Dist Tot Dist Heading (true) Name
O GMMN APT - 0 ft / 0 m 33.36747˚ -7.58996˚ - 0 nm - Casablanca Mohammed V Intl
RBT VOR - 0 ft / 0 m 34.05000˚ -6.74639˚ 58 nm 58 nm 46° / 46° RABAT VOR-DME
O GMME APT - 0 ft / 0 m 34.05147˚ -6.75152˚ 0 nm 59 nm 289° / 289° SALE

Altitude Profile

Advertisement - Login to hide

GMMN

Details ICAO GMMN (CMN)
Name Casablanca Mohammed V Intl
Region Morocco
Timezone Africa/Casablanca (UTC+0.0)
Stats Elevation 656 ft / 200 m (AMSL)
Location 33.367466° -7.589964°
Runways 2
Magnetic Variation 1.818° W

METAR

GMMN 121200Z 06010KT 020V090 9999 BKN020 14/09 Q1018 NOSIG

Decode

TAF

TAF GMMN 121100Z 1212/1318 02008KT 9999 BKN016 BECMG 1218/1222 08004KT SCT016 TEMPO 1304/1308 5000 BECMG 1309/1312 36010KT

Decode

Departure Runways

ID Width Length Bearing (true) Bearing (mag) Surface Threshold Offset Overrun Length
17L 148 ft / 45 m 12,224 ft / 3,726 m 164.03° 165.85° Asphalt 0 ft / 0 m 295 ft / 90 m
17R 148 ft / 45 m 12,196 ft / 3,717 m 164.03° 165.85° Asphalt 0 ft / 0 m 197 ft / 60 m
35L 148 ft / 45 m 12,196 ft / 3,717 m 344.04° 345.86° Asphalt 0 ft / 0 m 180 ft / 55 m
35R 148 ft / 45 m 12,224 ft / 3,726 m 344.04° 345.86° Asphalt 0 ft / 0 m 995 ft / 303 m

GMME

Details ICAO GMME (RBA)
Name SALE
Region Morocco
Timezone Africa/Casablanca (UTC+0.0)
Stats Elevation 276 ft / 84 m (AMSL)
Location 34.051468° -6.751519°
Runways 1
Magnetic Variation 1.551° W

METAR

GMME 121200Z 01009KT 340V040 5000 SCT013 SCT020 15/05 Q1017 NOSIG

Decode

TAF

TAF GMME 121100Z 1212/1318 36010KT 5000 SCT013 BKN020 TEMPO 1220/1307 VRB02KT 3000 BR SCT008 BKN013 BECMG 1311/1313 06010KT

Decode

Destination Runways

ID Width Length Bearing (true) Bearing (mag) Surface Threshold Offset Overrun Length
04 148 ft / 45 m 11,503 ft / 3,506 m 31.24° 32.79° Asphalt 0 ft / 0 m 197 ft / 60 m
22 148 ft / 45 m 11,503 ft / 3,506 m 211.25° 212.80° Asphalt 0 ft / 0 m 197 ft / 60 m

Approach Navaids

Runway Type Ident Frequency Range Bearing (true) Bearing (mag) Slope Elevation
22 Localiser RS 110.90 MHz 18 nm / 33 km 211.23° 212.78° - 250 ft / 76 m (AMSL)
22 Glidescope RS 110.90 MHz 10 nm / 19 km 211.24° 212.79° 3.00° 246 ft / 75 m (AMSL)
22 DME RS 110.90 MHz 18 nm / 33 km - - - 39 ft / 12 m (AMSL)

Popular Alternatives